Time;durP1;ratioP1;P1;durP2;ratioP2;P2;SDS_P1;SDS_P2;PMS_P1;PMS_P2;Temp;Humidity;BMP_temperature;BMP_pressure;BME280_temperature;BME280_humidity;BME280_pressure;Samples;Min_cycle;Max_cycle;Signal;HPM_P1;HPM_P2
2022/09/23 00:01:01;;;;;;;4.40;2.53;;;;;;;13.96;49.93;99833.00;3143196;28;20113;-59
2022/09/23 00:02:33;;;;;;;5.40;2.58;;;;;;;13.96;50.15;99832.13;3143530;28;20037;-59
2022/09/23 00:04:03;;;;;;;5.25;2.78;;;;;;;13.98;50.12;99830.28;3143718;28;20446;-60
2022/09/23 00:05:36;;;;;;;3.80;2.45;;;;;;;13.97;50.12;99832.06;3144036;28;20058;-60
2022/09/23 00:07:08;;;;;;;3.13;2.33;;;;;;;13.99;49.99;99829.31;3144156;28;20584;-60
2022/09/23 00:08:41;;;;;;;4.03;2.63;;;;;;;13.95;50.09;99827.84;3144561;28;20139;-60
2022/09/23 00:10:13;;;;;;;5.65;2.78;;;;;;;13.92;50.02;99830.63;3144553;28;20532;-60
2022/09/23 00:11:44;;;;;;;4.60;2.50;;;;;;;13.89;50.07;99821.19;3144307;28;20445;-60
2022/09/23 00:13:16;;;;;;;3.35;2.08;;;;;;;13.86;50.41;99822.19;3144355;28;20052;-60
2022/09/23 00:14:48;;;;;;;4.70;2.58;;;;;;;13.86;50.29;99822.19;3144798;28;20091;-60
2022/09/23 00:16:22;;;;;;;4.00;2.75;;;;;;;13.88;50.35;99822.97;3144302;28;20082;-60
2022/09/23 00:17:54;;;;;;;7.03;2.72;;;;;;;13.87;50.26;99817.78;3138026;28;20049;-60
2022/09/23 00:19:26;;;;;;;5.13;2.90;;;;;;;13.87;50.06;99818.66;3144217;28;20612;-60
2022/09/23 00:20:56;;;;;;;7.05;3.03;;;;;;;13.89;50.28;99823.78;3144361;28;20430;-60
2022/09/23 00:22:28;;;;;;;4.18;2.60;;;;;;;13.89;50.01;99821.19;3144396;28;20161;-60
2022/09/23 00:24:01;;;;;;;3.80;2.42;;;;;;;13.87;50.00;99821.28;3144340;28;20426;-60
2022/09/23 00:25:33;;;;;;;4.75;2.50;;;;;;;13.89;49.83;99821.19;3144325;28;20055;-60
2022/09/23 00:27:05;;;;;;;3.30;2.40;;;;;;;13.92;50.07;99828.84;3144489;28;20506;-60
2022/09/23 00:28:37;;;;;;;4.13;2.72;;;;;;;13.91;50.02;99821.09;3143920;28;20052;-60
2022/09/23 00:30:09;;;;;;;5.72;2.60;;;;;;;13.88;50.20;99817.72;3144658;28;20060;-60
2022/09/23 00:31:41;;;;;;;7.47;2.83;;;;;;;13.88;49.95;99816.88;3144022;28;20178;-60
2022/09/23 00:33:12;;;;;;;4.53;3.13;;;;;;;13.89;50.42;99818.56;3144267;28;20040;-60
2022/09/23 00:34:43;;;;;;;5.22;2.75;;;;;;;13.87;50.37;99816.03;3143982;28;20133;-61
2022/09/23 00:36:16;;;;;;;7.60;2.70;;;;;;;13.88;49.94;99819.50;3144503;28;20094;-60
2022/09/23 00:37:47;;;;;;;4.70;2.35;;;;;;;13.84;50.06;99816.22;3144592;28;20060;-60
2022/09/23 00:39:21;;;;;;;5.25;2.83;;;;;;;13.88;50.02;99816.88;3144453;28;20057;-60
2022/09/23 00:40:51;;;;;;;6.75;3.10;;;;;;;13.85;49.80;99817.91;3144201;28;20049;-60
2022/09/23 00:42:25;;;;;;;5.05;2.95;;;;;;;13.85;49.78;99814.44;3144377;28;20075;-61
2022/09/23 00:43:59;;;;;;;5.28;2.80;;;;;;;13.84;50.09;99817.97;3144350;28;20052;-61
2022/09/23 00:45:31;;;;;;;3.72;2.83;;;;;;;13.80;49.92;99819.94;3144251;28;20056;-61
2022/09/23 00:47:03;;;;;;;3.75;2.55;;;;;;;13.80;50.04;99817.31;3144371;28;20056;-61
2022/09/23 00:48:37;;;;;;;8.25;2.70;;;;;;;13.80;49.80;99814.69;3145326;28;20088;-61
2022/09/23 00:50:14;;;;;;;4.80;2.85;;;;;;;13.82;49.68;99814.63;3146856;28;20052;-61
2022/09/23 00:51:53;;;;;;;3.03;2.45;;;;;;;13.84;50.09;99817.97;3146916;28;20486;-61
2022/09/23 00:53:25;;;;;;;3.78;2.75;;;;;;;13.82;49.69;99814.63;3146509;28;20492;-61
2022/09/23 00:55:02;;;;;;;5.53;2.65;;;;;;;13.83;49.56;99819.75;3146760;28;20048;-61
2022/09/23 00:56:36;;;;;;;4.47;2.70;;;;;;;13.84;49.56;99815.34;3146628;28;20597;-61
2022/09/23 00:58:10;;;;;;;4.05;2.63;;;;;;;13.84;49.98;99812.75;3146413;28;20071;-61
2022/09/23 00:59:43;;;;;;;5.55;2.80;;;;;;;13.83;49.61;99811.91;3146795;28;20052;-61
2022/09/23 01:01:15;;;;;;;4.97;2.67;;;;;;;13.82;49.58;99818.09;3141176;28;20052;-61
2022/09/23 01:02:47;;;;;;;3.10;2.42;;;;;;;13.82;49.55;99818.09;3146658;28;20067;-61
2022/09/23 01:04:19;;;;;;;4.55;2.42;;;;;;;13.82;49.65;99815.47;3146765;28;20129;-61
2022/09/23 01:05:52;;;;;;;3.60;2.50;;;;;;;13.82;49.57;99812.00;3146079;28;20076;-61
2022/09/23 01:07:23;;;;;;;4.03;2.20;;;;;;;13.81;49.45;99816.41;3146385;28;20131;-60
2022/09/23 01:08:55;;;;;;;4.47;2.67;;;;;;;13.83;49.51;99811.91;3146583;28;20063;-61
2022/09/23 01:10:31;;;;;;;5.78;2.55;;;;;;;13.80;49.39;99814.69;3146344;28;20048;-60
2022/09/23 01:12:17;;;;;;;2.70;2.17;;;;;;;13.80;49.42;99814.69;3146698;28;20076;-60
2022/09/23 01:14:00;;;;;;;4.22;2.50;;;;;;;13.79;49.76;99807.78;3146086;28;20571;-60
2022/09/23 01:15:41;;;;;;;5.22;2.70;;;;;;;13.77;49.44;99804.41;3146588;28;20087;-60
2022/09/23 01:17:18;;;;;;;4.63;2.90;;;;;;;13.80;49.35;99814.69;3144170;28;20514;-60
2022/09/23 01:18:56;;;;;;;5.35;2.42;;;;;;;13.81;49.70;99815.53;3146303;28;20063;-60
2022/09/23 01:20:47;;;;;;;2.90;2.28;;;;;;;13.80;49.48;99808.63;3146003;28;20503;-60
2022/09/23 01:22:27;;;;;;;4.10;2.42;;;;;;;13.78;49.35;99813.97;3144905;28;20079;-60
2022/09/23 01:24:34;;;;;;;3.78;2.63;;;;;;;13.77;49.85;99814.88;3146480;28;20057;-61
2022/09/23 01:26:28;;;;;;;5.32;2.40;;;;;;;13.72;49.85;99811.69;3144882;28;20779;-61
2022/09/23 01:28:17;;;;;;;4.57;2.43;;;;;;;13.71;49.48;99806.56;3146325;28;20455;-60
2022/09/23 01:30:09;;;;;;;8.80;2.70;;;;;;;13.70;49.60;99803.09;3146435;28;20472;-61
2022/09/23 01:31:49;;;;;;;4.15;2.78;;;;;;;13.72;49.48;99803.81;3141033;28;20051;-61
2022/09/23 01:33:25;;;;;;;3.33;2.33;;;;;;;13.66;49.67;99796.34;3146277;28;20076;-60
2022/09/23 01:35:05;;;;;;;3.53;2.28;;;;;;;13.73;49.77;99809.94;3145690;28;20040;-60
2022/09/23 01:36:42;;;;;;;6.22;2.35;;;;;;;13.71;49.89;99807.38;3145740;28;20139;-60
2022/09/23 01:38:31;;;;;;;3.47;2.25;;;;;;;13.71;49.97;99812.63;3146082;28;20078;-60
2022/09/23 01:40:09;;;;;;;4.03;2.65;;;;;;;13.69;49.81;99819.72;3146451;28;20089;-61
2022/09/23 01:41:51;;;;;;;3.30;2.20;;;;;;;13.67;49.84;99818.13;3146356;28;20378;-61
2022/09/23 01:43:30;;;;;;;3.50;2.08;;;;;;;13.60;50.25;99812.38;3146226;28;20037;-61
2022/09/23 01:45:11;;;;;;;3.22;2.03;;;;;;;13.55;50.26;99815.28;3146172;28;20049;-61
2022/09/23 01:46:50;;;;;;;2.88;2.10;;;;;;;13.56;49.96;99818.75;3145990;28;20569;-61
2022/09/23 01:48:28;;;;;;;4.57;2.42;;;;;;;13.52;50.06;99814.63;3146505;28;20055;-61
2022/09/23 01:50:54;;;;;;;3.42;2.50;;;;;;;13.51;50.18;99816.38;3143730;28;20072;-61
2022/09/23 01:51:59;;;;;;;4.15;2.30;;;;;;;13.46;50.20;99810.59;3145997;28;20143;-61
2022/09/23 01:53:39;;;;;;;3.50;2.50;;;;;;;13.45;50.63;99808.03;3146018;28;20044;-61
2022/09/23 01:55:13;;;;;;;6.55;2.03;;;;;;;13.42;50.76;99807.28;3146146;28;20590;-61
2022/09/23 01:56:50;;;;;;;3.10;2.58;;;;;;;13.39;50.79;99807.44;3145646;28;20083;-61
2022/09/23 01:58:26;;;;;;;3.60;2.35;;;;;;;13.39;50.68;99804.00;3146036;28;20060;-61
2022/09/23 02:00:05;;;;;;;3.85;2.53;;;;;;;13.39;50.77;99798.75;3145165;28;20052;-61
2022/09/23 02:01:43;;;;;;;3.45;2.05;;;;;;;13.39;50.70;99804.00;3146108;28;20498;-61
2022/09/23 02:03:26;;;;;;;4.28;2.28;;;;;;;13.31;50.66;99793.13;3145530;28;20072;-61
2022/09/23 02:05:02;;;;;;;3.50;2.42;;;;;;;13.38;50.46;99805.78;3146078;28;20051;-61
2022/09/23 02:06:37;;;;;;;2.42;1.92;;;;;;;13.37;50.62;99805.88;3145461;28;20106;-61
2022/09/23 02:08:13;;;;;;;2.70;1.98;;;;;;;13.38;50.33;99808.38;3145105;28;20064;-62
2022/09/23 02:09:51;;;;;;;4.72;2.30;;;;;;;13.35;50.72;99797.25;3144830;28;20501;-62
2022/09/23 02:11:24;;;;;;;3.35;2.08;;;;;;;13.35;50.45;99803.34;3144220;28;20052;-63
2022/09/23 02:13:04;;;;;;;4.18;2.30;;;;;;;13.35;50.44;99805.94;3144748;28;20049;-60
2022/09/23 02:14:42;;;;;;;5.20;2.55;;;;;;;13.33;50.57;99807.81;3144703;28;20075;-60
2022/09/23 02:16:23;;;;;;;2.92;2.30;;;;;;;13.30;50.83;99801.91;3145083;28;20163;-60
2022/09/23 02:18:01;;;;;;;3.80;2.40;;;;;;;13.30;50.79;99807.13;3144854;28;20067;-60
2022/09/23 02:19:40;;;;;;;6.63;2.47;;;;;;;13.31;50.81;99811.44;3144829;28;20060;-61
2022/09/23 02:21:15;;;;;;;4.53;2.50;;;;;;;13.30;50.79;99809.75;3144662;28;20143;-61
2022/09/23 02:22:54;;;;;;;3.00;2.38;;;;;;;13.29;50.84;99810.69;3144236;28;20494;-61
2022/09/23 02:24:29;;;;;;;3.47;2.45;;;;;;;13.30;50.73;99814.97;3144684;28;20816;-60
2022/09/23 02:26:06;;;;;;;3.67;2.65;;;;;;;13.31;50.35;99817.53;3144981;28;20052;-60
2022/09/23 02:27:42;;;;;;;6.35;2.60;;;;;;;13.26;50.38;99813.47;3144838;28;20505;-60
2022/09/23 02:29:19;;;;;;;3.88;2.72;;;;;;;13.20;50.34;99804.16;3142884;28;20057;-61
2022/09/23 02:30:59;;;;;;;3.55;2.67;;;;;;;13.26;50.65;99816.94;3139841;28;20597;-60
2022/09/23 02:32:36;;;;;;;4.80;2.88;;;;;;;13.26;50.44;99818.72;3145719;28;20585;-60
2022/09/23 02:34:19;;;;;;;4.32;2.65;;;;;;;13.25;50.50;99814.34;3143179;28;20067;-61
2022/09/23 02:35:57;;;;;;;6.40;2.90;;;;;;;13.21;50.62;99817.16;3145121;28;20114;-61
2022/09/23 02:37:39;;;;;;;5.50;3.15;;;;;;;13.24;50.62;99820.53;3145548;28;20060;-61
2022/09/23 02:39:14;;;;;;;3.55;2.70;;;;;;;13.22;50.87;99823.22;3144452;28;20053;-61
2022/09/23 02:40:53;;;;;;;7.57;3.00;;;;;;;13.18;50.66;99822.53;3145349;28;20040;-60
2022/09/23 02:42:32;;;;;;;4.38;2.72;;;;;;;13.15;50.83;99812.25;3145688;28;20201;-61
2022/09/23 02:44:07;;;;;;;5.13;3.10;;;;;;;13.12;51.02;99815.03;3145397;28;20563;-61
2022/09/23 02:45:39;;;;;;;5.82;2.80;;;;;;;13.11;50.84;99823.00;3145561;28;20510;-61
2022/09/23 02:47:10;;;;;;;5.05;2.85;;;;;;;13.12;50.84;99816.81;3145482;28;20044;-61
2022/09/23 02:48:46;;;;;;;4.38;3.00;;;;;;;13.11;50.89;99820.38;3145361;28;20105;-61
2022/09/23 02:50:18;;;;;;;7.60;2.67;;;;;;;13.12;51.09;99817.66;3145104;28;20052;-61
2022/09/23 02:51:53;;;;;;;7.78;3.30;;;;;;;13.09;51.08;99820.44;3145574;28;20495;-60
2022/09/23 02:53:25;;;;;;;5.22;2.78;;;;;;;13.06;51.40;99817.16;3145271;28;20048;-61
2022/09/23 02:54:58;;;;;;;5.65;3.10;;;;;;;13.05;51.27;99820.72;3145429;28;20437;-61
2022/09/23 02:56:30;;;;;;;3.83;3.10;;;;;;;13.05;51.35;99816.31;3145261;28;20548;-61
2022/09/23 02:58:04;;;;;;;5.35;3.20;;;;;;;13.03;51.46;99822.56;3145566;28;20127;-61
2022/09/23 02:59:37;;;;;;;4.28;2.92;;;;;;;12.89;51.44;99805.00;3145233;28;20102;-61
2022/09/23 03:01:17;;;;;;;4.63;2.72;;;;;;;12.98;51.38;99821.06;3145369;28;20059;-61
2022/09/23 03:03:09;;;;;;;7.55;3.53;;;;;;;12.95;51.75;99823.84;3144865;28;20533;-61
2022/09/23 03:04:49;;;;;;;6.00;2.85;;;;;;;12.92;51.82;99833.59;3144228;28;20044;-61
2022/09/23 03:06:29;;;;;;;5.50;3.53;;;;;;;12.91;51.79;99830.13;3145435;28;20127;-60
2022/09/23 03:08:24;;;;;;;3.72;2.65;;;;;;;12.94;51.81;99831.75;3144972;28;20063;-61
2022/09/23 03:10:08;;;;;;;4.78;2.92;;;;;;;12.94;51.68;99829.13;3144520;28;20058;-60
2022/09/23 03:11:48;;;;;;;4.88;2.80;;;;;;;12.91;51.61;99831.91;3144196;28;20456;-61
2022/09/23 03:13:33;;;;;;;4.35;2.97;;;;;;;12.87;51.85;99833.84;3144869;28;20057;-61
2022/09/23 03:15:16;;;;;;;4.18;3.25;;;;;;;12.88;51.77;99830.31;3145216;28;20094;-61
2022/09/23 03:16:56;;;;;;;3.80;2.70;;;;;;;12.83;52.41;99831.47;3144970;28;20048;-60
2022/09/23 03:18:36;;;;;;;3.97;2.70;;;;;;;12.77;52.26;99826.59;3144757;28;20053;-59
2022/09/23 03:20:12;;;;;;;3.65;2.53;;;;;;;12.79;52.17;99840.41;3145179;28;20481;-61
2022/09/23 03:21:51;;;;;;;5.43;3.40;;;;;;;12.68;52.72;99830.53;3144801;28;20060;-60
2022/09/23 03:23:31;;;;;;;9.57;3.50;;;;;;;12.67;52.53;99840.13;3145023;28;20052;-59
2022/09/23 03:25:08;;;;;;;5.85;3.25;;;;;;;12.61;52.67;99850.91;3144950;28;20044;-61
2022/09/23 03:26:45;;;;;;;5.85;3.60;;;;;;;12.53;53.19;99846.09;3144909;28;20537;-61
2022/09/23 03:28:19;;;;;;;5.22;3.17;;;;;;;12.50;53.19;99838.41;3144951;28;20052;-61
2022/09/23 03:29:53;;;;;;;4.32;3.17;;;;;;;12.43;53.56;99837.06;3144754;28;20056;-61
2022/09/23 03:31:25;;;;;;;6.65;2.70;;;;;;;12.44;53.24;99853.56;3144733;28;20125;-62
2022/09/23 03:33:00;;;;;;;3.78;2.72;;;;;;;12.37;53.71;99850.44;3144320;28;20109;-62
2022/09/23 03:34:35;;;;;;;5.72;3.63;;;;;;;12.31;53.54;99853.38;3144674;28;20094;-60
2022/09/23 03:38:16;;;;;;;4.80;2.67;;;;;;;12.26;54.01;99852.75;3128937;28;20055;-60
2022/09/23 03:39:54;;;;;;;4.20;2.70;;;;;;;12.21;54.05;99836.47;3143906;28;20044;-59
2022/09/23 03:41:36;;;;;;;4.30;2.72;;;;;;;12.18;54.05;99852.28;3144898;28;20045;-59
2022/09/23 03:43:10;;;;;;;5.72;3.20;;;;;;;12.16;54.61;99851.53;3144769;28;20618;-60
2022/09/23 03:44:44;;;;;;;5.82;2.88;;;;;;;12.14;54.53;99861.22;3144567;28;20509;-60
2022/09/23 03:46:16;;;;;;;10.10;3.05;;;;;;;12.10;55.01;99852.69;3144402;28;20052;-61
2022/09/23 03:47:48;;;;;;;9.00;3.20;;;;;;;12.07;54.96;99856.31;3144821;28;20060;-60
2022/09/23 03:49:26;;;;;;;4.70;3.17;;;;;;;12.07;55.19;99855.47;3144738;28;20060;-60
2022/09/23 03:50:59;;;;;;;5.65;3.22;;;;;;;12.06;55.01;99864.19;3141136;28;20214;-60
2022/09/23 03:52:31;;;;;;;8.63;3.50;;;;;;;12.04;55.13;99866.06;3144396;28;20437;-60
2022/09/23 03:54:03;;;;;;;5.30;3.47;;;;;;;12.02;55.43;99866.13;3144568;28;20037;-60
2022/09/23 03:55:38;;;;;;;5.80;3.40;;;;;;;11.94;55.80;99856.97;3144435;28;20075;-60
2022/09/23 03:57:11;;;;;;;9.77;4.35;;;;;;;11.96;55.76;99871.66;3138187;28;20056;-59
2022/09/23 03:58:44;;;;;;;;;;;;;;;11.90;56.10;99868.50;3145112;28;20051;-59
2022/09/23 04:00:16;;;;;;;6.50;3.00;;;;;;;11.84;56.00;99872.22;3144377;28;19930;-59
2022/09/23 04:01:49;;;;;;;6.55;3.30;;;;;;;11.82;56.12;99874.06;3144570;28;20049;-59
2022/09/23 04:03:21;;;;;;;9.57;3.38;;;;;;;11.80;56.80;99870.66;3144560;28;20515;-59
2022/09/23 04:04:54;;;;;;;5.88;3.13;;;;;;;11.76;56.77;99869.16;3144269;28;20101;-59
2022/09/23 04:06:27;;;;;;;5.22;3.38;;;;;;;11.71;56.96;99868.50;3144860;28;20805;-59
2022/09/23 04:07:59;;;;;;;6.57;3.10;;;;;;;11.72;57.20;99875.44;3144461;28;20053;-59
2022/09/23 04:09:31;;;;;;;4.38;3.20;;;;;;;11.71;56.82;99865.91;3144695;28;20105;-59
2022/09/23 04:11:05;;;;;;;21.35;11.77;;;;;;;11.70;57.52;99872.06;3137639;28;20517;-59
2022/09/23 04:12:38;;;;;;;37.90;20.45;;;;;;;11.69;57.42;99865.16;3144383;28;20044;-59
2022/09/23 04:14:11;;;;;;;7.63;3.60;;;;;;;11.71;57.14;99869.38;3144095;28;20534;-59
2022/09/23 04:15:41;;;;;;;7.45;3.53;;;;;;;11.73;57.50;99871.91;3142446;28;20127;-58
2022/09/23 04:17:13;;;;;;;5.40;3.63;;;;;;;11.72;57.49;99875.44;3144487;28;20314;-57
2022/09/23 04:18:45;;;;;;;9.30;3.78;;;;;;;11.73;57.59;99877.13;3144359;28;20059;-58
2022/09/23 04:20:18;;;;;;;5.55;3.75;;;;;;;11.75;57.39;99870.91;3144482;28;20055;-58
2022/09/23 04:21:50;;;;;;;6.97;3.73;;;;;;;11.75;57.60;99876.13;3144291;28;20056;-57
2022/09/23 04:23:22;;;;;;;8.85;3.90;;;;;;;11.74;57.41;99876.19;3145484;28;20416;-58
2022/09/23 04:24:53;;;;;;;8.90;3.40;;;;;;;11.76;57.51;99879.56;3146882;28;20063;-56
2022/09/23 04:26:27;;;;;;;8.82;4.30;;;;;;;11.73;57.83;99875.34;3147182;28;20044;-57
2022/09/23 04:27:59;;;;;;;8.80;3.67;;;;;;;11.72;57.98;99873.66;3147127;28;20386;-57
2022/09/23 04:29:30;;;;;;;9.13;4.22;;;;;;;11.72;57.55;99878.88;3145936;28;20056;-58
2022/09/23 04:31:04;;;;;;;6.53;3.38;;;;;;;11.72;57.64;99876.28;3146887;28;20044;-58
2022/09/23 04:32:35;;;;;;;10.30;4.03;;;;;;;11.75;57.82;99883.97;3145677;28;20068;-55
2022/09/23 04:34:07;;;;;;;6.57;3.90;;;;;;;11.74;57.64;99871.84;3145731;28;20445;-58
2022/09/23 04:35:41;;;;;;;6.95;4.07;;;;;;;11.68;57.84;99864.28;3145705;28;20368;-58
2022/09/23 04:37:13;;;;;;;7.13;3.78;;;;;;;11.77;57.63;99876.03;3145882;28;20040;-58
2022/09/23 04:38:48;;;;;;;5.43;3.72;;;;;;;11.78;57.78;99877.75;3145669;28;20053;-57
2022/09/23 04:40:19;;;;;;;8.25;3.88;;;;;;;11.80;57.59;99884.59;3145913;28;20052;-57
2022/09/23 04:41:53;;;;;;;6.32;3.80;;;;;;;11.80;57.38;99889.81;3145451;28;20045;-56
2022/09/23 04:43:25;;;;;;;9.55;4.10;;;;;;;11.81;57.70;99888.03;3143793;28;20059;-57
2022/09/23 04:44:56;;;;;;;5.70;3.63;;;;;;;11.86;57.22;99883.47;3145390;28;20041;-57
2022/09/23 04:46:27;;;;;;;5.90;3.60;;;;;;;11.86;57.20;99888.69;3144885;28;20048;-57
2022/09/23 04:48:00;;;;;;;5.65;3.30;;;;;;;11.88;57.33;99888.59;3145498;28;20509;-57
2022/09/23 04:49:32;;;;;;;6.60;3.30;;;;;;;11.92;57.35;99885.78;3142554;28;20061;-57
2022/09/23 04:51:04;;;;;;;4.70;3.00;;;;;;;11.90;57.41;99885.00;3145489;28;20055;-57
2022/09/23 04:52:36;;;;;;;8.00;3.58;;;;;;;11.95;56.86;99889.97;3145680;28;20200;-57
2022/09/23 04:54:08;;;;;;;6.50;2.97;;;;;;;11.93;57.00;99877.03;3145578;28;20048;-58
2022/09/23 04:55:40;;;;;;;9.07;3.40;;;;;;;11.95;56.97;99887.38;3145792;28;20048;-57
2022/09/23 04:57:14;;;;;;;14.00;3.13;;;;;;;11.96;56.92;99884.69;3145321;28;20433;-58
2022/09/23 04:58:46;;;;;;;4.90;3.22;;;;;;;11.96;56.84;99892.53;3145441;28;20114;-57
2022/09/23 05:00:18;;;;;;;6.70;3.20;;;;;;;11.97;56.73;99891.59;3145580;28;20056;-57
2022/09/23 05:01:53;;;;;;;7.32;2.92;;;;;;;11.98;56.96;99895.03;3145610;28;20492;-57
2022/09/23 05:03:25;;;;;;;5.80;2.80;;;;;;;12.01;56.38;99894.94;3145295;28;20137;-57
2022/09/23 05:04:57;;;;;;;8.40;3.28;;;;;;;12.02;56.75;99891.38;3145333;28;20040;-58
2022/09/23 05:06:30;;;;;;;4.38;3.15;;;;;;;12.02;56.44;99896.59;3146161;28;20472;-59
2022/09/23 05:08:02;;;;;;;6.75;2.55;;;;;;;12.03;56.74;99900.88;3145649;28;20083;-59
2022/09/23 05:09:34;;;;;;;5.85;2.75;;;;;;;12.03;56.53;99904.34;3143647;28;20056;-56
2022/09/23 05:11:06;;;;;;;4.47;3.17;;;;;;;12.01;56.66;99908.81;3141358;28;20445;-57
2022/09/23 05:12:39;;;;;;;8.10;2.80;;;;;;;12.02;56.68;99904.44;3141552;28;20044;-57
2022/09/23 05:14:10;;;;;;;7.75;2.95;;;;;;;12.03;56.54;99901.72;3146421;28;20068;-58
2022/09/23 05:15:42;;;;;;;3.05;2.45;;;;;;;12.06;56.70;99903.34;3146488;28;20114;-57
2022/09/23 05:17:14;;;;;;;6.30;2.83;;;;;;;12.08;56.66;99904.13;3146350;28;20067;-58
2022/09/23 05:18:48;;;;;;;6.68;3.20;;;;;;;12.11;56.33;99901.38;3146827;28;20128;-59
2022/09/23 05:20:20;;;;;;;12.75;6.72;;;;;;;12.14;56.31;99895.97;3146371;28;20056;-59
2022/09/23 05:21:52;;;;;;;8.57;4.25;;;;;;;12.17;56.27;99900.22;3146559;28;20059;-57
2022/09/23 05:23:24;;;;;;;5.13;2.60;;;;;;;12.21;55.95;99907.78;3146393;28;20049;-59
2022/09/23 05:24:58;;;;;;;5.07;3.33;;;;;;;12.23;55.92;99897.28;3146168;28;20052;-59
2022/09/23 05:26:31;;;;;;;5.80;2.58;;;;;;;12.26;55.74;99897.97;3146522;28;20107;-59
2022/09/23 05:28:05;;;;;;;6.82;3.00;;;;;;;12.27;55.68;99893.59;3146445;28;20041;-59
2022/09/23 05:29:38;;;;;;;7.15;2.17;;;;;;;12.27;55.70;99902.28;3139985;28;20509;-60
2022/09/23 05:31:13;;;;;;;5.15;2.75;;;;;;;12.28;56.05;99900.53;3147296;28;20049;-59
2022/09/23 05:32:45;;;;;;;5.82;2.50;;;;;;;12.26;55.64;99892.75;3146020;28;20449;-59
2022/09/23 05:34:17;;;;;;;4.72;2.42;;;;;;;12.29;55.72;99894.38;3146281;28;20088;-59
2022/09/23 05:35:49;;;;;;;5.10;2.92;;;;;;;12.30;55.64;99890.81;3145618;28;20055;-59
2022/09/23 05:37:22;;;;;;;2.92;2.42;;;;;;;12.32;55.63;99898.59;3146342;28;20049;-59
2022/09/23 05:38:55;;;;;;;6.20;2.90;;;;;;;12.33;55.66;99888.06;3145209;28;20492;-60
2022/09/23 05:40:27;;;;;;;;;;;;;;;12.34;55.77;99894.16;3146776;28;20063;-60
2022/09/23 05:41:59;;;;;;;7.10;2.42;;;;;;;12.37;55.52;99891.38;3145901;28;19981;-59
2022/09/23 05:43:32;;;;;;;4.10;2.70;;;;;;;12.44;55.65;99903.19;3139823;28;20414;-60
2022/09/23 05:45:06;;;;;;;3.80;2.35;;;;;;;12.46;55.67;99904.81;3146168;28;20045;-61
2022/09/23 05:46:38;;;;;;;4.30;2.90;;;;;;;12.55;55.22;99905.25;3145831;28;20063;-59
2022/09/23 05:48:10;;;;;;;3.83;2.55;;;;;;;12.63;55.17;99897.84;3146433;28;20060;-59
2022/09/23 05:49:42;;;;;;;7.72;2.30;;;;;;;12.70;55.21;99912.31;3140588;28;20056;-59
2022/09/23 05:51:17;;;;;;;4.15;2.72;;;;;;;12.77;54.76;99905.81;3145773;28;20049;-59
2022/09/23 05:52:48;;;;;;;7.72;2.95;;;;;;;12.86;54.68;99896.66;3146082;28;20049;-65
2022/09/23 05:54:20;;;;;;;6.35;2.60;;;;;;;12.92;54.21;99902.38;3145743;28;20614;-58
2022/09/23 05:55:53;;;;;;;5.65;3.20;;;;;;;13.01;53.97;99903.66;3146197;28;20056;-57
2022/09/23 05:57:25;;;;;;;6.18;3.47;;;;;;;13.08;53.77;99898.97;3146187;28;20433;-59
2022/09/23 05:59:00;;;;;;;5.20;2.88;;;;;;;13.16;54.03;99900.25;3145496;28;20776;-58
2022/09/23 06:00:32;;;;;;;5.85;2.60;;;;;;;13.26;53.88;99910.25;3146269;28;20117;-58
2022/09/23 06:02:04;;;;;;;3.17;2.40;;;;;;;13.36;53.51;99904.41;3145643;28;20056;-57
2022/09/23 06:03:36;;;;;;;5.63;2.58;;;;;;;13.45;53.70;99904.84;3146084;28;20052;-59
2022/09/23 06:05:08;;;;;;;8.32;3.05;;;;;;;13.48;53.48;99904.66;3145786;28;20045;-58
2022/09/23 06:06:41;;;;;;;3.88;2.78;;;;;;;13.50;52.93;99902.81;3145668;28;20048;-59
2022/09/23 06:08:13;;;;;;;;;;;;;;;13.59;52.95;99900.53;3146198;28;20214;-59
2022/09/23 06:09:45;;;;;;;7.78;3.20;;;;;;;13.63;53.01;99903.81;3146041;28;19932;-58
2022/09/23 06:11:17;;;;;;;7.95;3.10;;;;;;;13.72;52.45;99902.44;3144974;28;20500;-58
2022/09/23 06:12:49;;;;;;;4.57;2.95;;;;;;;13.77;52.49;99898.63;3145556;28;20052;-59
2022/09/23 06:14:22;;;;;;;7.97;3.50;;;;;;;13.88;52.60;99911.13;3145863;28;20055;-59
2022/09/23 06:15:57;;;;;;;9.32;3.20;;;;;;;14.00;52.61;99904.34;3145103;28;20045;-59
2022/09/23 06:17:29;;;;;;;7.47;3.25;;;;;;;14.08;52.19;99910.81;3145633;28;20056;-59
2022/09/23 06:19:04;;;;;;;9.93;3.13;;;;;;;14.21;52.29;99910.94;3145834;28;20071;-59
2022/09/23 06:20:36;;;;;;;6.65;3.08;;;;;;;14.30;51.94;99912.19;3145699;28;20052;-58
2022/09/23 06:22:09;;;;;;;8.68;3.47;;;;;;;14.32;51.68;99900.69;3145501;28;20044;-57
2022/09/23 06:23:41;;;;;;;6.78;2.95;;;;;;;14.37;51.29;99903.03;3145406;28;20166;-57
2022/09/23 06:25:13;;;;;;;5.47;2.70;;;;;;;14.45;51.06;99903.41;3139252;28;20037;-58
2022/09/23 06:26:45;;;;;;;10.32;3.25;;;;;;;14.46;51.02;99905.09;3145653;28;20048;-59
2022/09/23 06:28:17;;;;;;;7.20;3.00;;;;;;;14.54;51.11;99908.13;3145466;28;20488;-59
2022/09/23 06:29:51;;;;;;;6.10;3.10;;;;;;;14.64;50.59;99911.06;3146034;28;20166;-57
2022/09/23 06:31:23;;;;;;;9.57;3.03;;;;;;;14.73;50.48;99909.63;3146689;28;20064;-59
2022/09/23 06:32:57;;;;;;;5.80;2.58;;;;;;;14.79;50.24;99909.28;3145435;28;20501;-57
2022/09/23 06:34:29;;;;;;;6.22;2.88;;;;;;;14.85;50.04;99918.53;3145160;28;20060;-59
2022/09/23 06:36:03;;;;;;;4.63;3.00;;;;;;;14.91;49.87;99910.31;3145548;28;20090;-58
2022/09/23 06:37:35;;;;;;;6.68;2.95;;;;;;;15.04;49.94;99903.38;3145811;28;20059;-58
2022/09/23 06:39:07;;;;;;;6.50;2.67;;;;;;;15.14;49.61;99907.09;3145272;28;20048;-58
2022/09/23 06:40:39;;;;;;;3.78;2.75;;;;;;;15.18;49.02;99906.00;3145118;28;20899;-58
2022/09/23 06:42:11;;;;;;;7.53;2.67;;;;;;;15.25;49.19;99902.03;3145794;28;20052;-58
2022/09/23 06:43:43;;;;;;;5.32;2.55;;;;;;;15.43;49.16;99904.44;3145502;28;20122;-58
2022/09/23 06:45:16;;;;;;;4.28;2.28;;;;;;;15.60;49.02;99901.56;3145291;28;20048;-57
2022/09/23 06:46:48;;;;;;;;;;;;;;;15.69;48.09;99897.53;3145881;28;20074;-57
2022/09/23 06:48:20;;;;;;;4.63;2.63;;;;;;;15.84;48.43;99900.97;3145387;28;19924;-58
2022/09/23 06:49:52;;;;;;;5.20;2.75;;;;;;;15.91;47.43;99912.72;3145405;28;20131;-60
2022/09/23 06:51:23;;;;;;;8.80;3.28;;;;;;;15.97;46.92;99911.50;3145803;28;20114;-60
2022/09/23 06:52:57;;;;;;;4.18;2.58;;;;;;;15.96;46.15;99917.69;3145462;28;20040;-60
2022/09/23 06:54:30;;;;;;;;;;;;;;;15.97;46.15;99911.50;3145433;28;20513;-59
2022/09/23 06:56:04;;;;;;;3.15;2.20;;;;;;;16.05;46.11;99915.31;3145286;28;19992;-58
2022/09/23 06:57:36;;;;;;;3.53;2.40;;;;;;;16.12;45.64;99915.75;3144928;28;20102;-59
2022/09/23 06:59:10;;;;;;;4.07;2.40;;;;;;;16.28;45.61;99915.56;3145161;28;20044;-58
2022/09/23 07:00:44;;;;;;;5.45;3.22;;;;;;;16.44;45.05;99915.38;3145455;28;20502;-59
2022/09/23 07:02:16;;;;;;;3.40;2.30;;;;;;;16.61;44.82;99905.38;3144940;28;20139;-59
2022/09/23 07:03:48;;;;;;;6.60;2.13;;;;;;;16.87;44.80;99921.19;3145066;28;20045;-59
2022/09/23 07:05:21;;;;;;;5.32;2.70;;;;;;;17.04;44.20;99918.25;3138442;28;20048;-59
2022/09/23 07:06:54;;;;;;;6.45;2.22;;;;;;;17.25;43.67;99912.41;3145006;28;20394;-58
2022/09/23 07:08:27;;;;;;;4.93;2.28;;;;;;;17.33;43.07;99917.09;3144522;28;20135;-59
2022/09/23 07:09:59;;;;;;;9.05;2.60;;;;;;;17.27;42.38;99921.00;3143961;28;20106;-58
2022/09/23 07:11:31;;;;;;;5.10;2.45;;;;;;;17.20;42.47;99923.25;3143411;28;20044;-58
2022/09/23 07:13:03;;;;;;;2.88;1.90;;;;;;;17.20;42.09;99922.41;3144351;28;20052;-58
2022/09/23 07:14:35;;;;;;;2.92;1.67;;;;;;;17.19;42.04;99913.69;3143889;28;20044;-58
2022/09/23 07:16:09;;;;;;;3.90;2.17;;;;;;;17.16;41.86;99910.44;3142614;28;20059;-59
2022/09/23 07:17:42;;;;;;;4.82;2.03;;;;;;;17.37;42.15;99911.53;3144026;28;20045;-58
2022/09/23 07:19:14;;;;;;;4.00;1.83;;;;;;;17.61;41.58;99913.34;3143177;28;20144;-58
2022/09/23 07:20:47;;;;;;;3.53;1.70;;;;;;;17.79;41.32;99921.72;3143859;28;20056;-58
2022/09/23 07:22:19;;;;;;;2.55;1.98;;;;;;;18.02;40.81;99920.03;3143891;28;20048;-58
2022/09/23 07:23:50;;;;;;;5.03;1.88;;;;;;;18.21;40.48;99919.50;3143800;28;20116;-58
2022/09/23 07:25:22;;;;;;;4.55;1.90;;;;;;;18.40;40.10;99920.63;3143976;28;20057;-59
2022/09/23 07:26:54;;;;;;;3.53;2.10;;;;;;;18.65;40.11;99916.13;3143896;28;20139;-58
2022/09/23 07:28:27;;;;;;;5.93;1.98;;;;;;;18.74;39.24;99915.44;3143861;28;20147;-58